sensor_id;sensor_type;location;lat;lon;timestamp;P1;durP1;ratioP1;P2;durP2;ratioP2
27925;SDS011;15267;47.838;12.128;2022-11-15T00:01:17;29.63;;;20.95;;
27925;SDS011;15267;47.838;12.128;2022-11-15T00:03:44;28.13;;;20.50;;
27925;SDS011;15267;47.838;12.128;2022-11-15T00:06:10;25.60;;;18.50;;
27925;SDS011;15267;47.838;12.128;2022-11-15T00:08:37;29.23;;;19.30;;
27925;SDS011;15267;47.838;12.128;2022-11-15T00:11:03;31.33;;;21.95;;
27925;SDS011;15267;47.838;12.128;2022-11-15T00:13:29;27.95;;;19.98;;
27925;SDS011;15267;47.838;12.128;2022-11-15T00:15:59;29.42;;;20.90;;
27925;SDS011;15267;47.838;12.128;2022-11-15T00:18:25;31.42;;;21.63;;
27925;SDS011;15267;47.838;12.128;2022-11-15T00:20:51;32.85;;;24.15;;
27925;SDS011;15267;47.838;12.128;2022-11-15T00:23:17;35.05;;;23.27;;
27925;SDS011;15267;47.838;12.128;2022-11-15T00:25:43;31.67;;;23.25;;
27925;SDS011;15267;47.838;12.128;2022-11-15T00:28:09;32.33;;;22.33;;
27925;SDS011;15267;47.838;12.128;2022-11-15T00:30:35;30.00;;;21.05;;
27925;SDS011;15267;47.838;12.128;2022-11-15T00:33:05;31.02;;;20.58;;
27925;SDS011;15267;47.838;12.128;2022-11-15T00:35:31;27.13;;;19.23;;
27925;SDS011;15267;47.838;12.128;2022-11-15T00:38:01;24.58;;;18.42;;
27925;SDS011;15267;47.838;12.128;2022-11-15T00:40:27;25.35;;;17.95;;
27925;SDS011;15267;47.838;12.128;2022-11-15T00:42:53;28.20;;;17.40;;
27925;SDS011;15267;47.838;12.128;2022-11-15T00:45:19;27.58;;;17.38;;
27925;SDS011;15267;47.838;12.128;2022-11-15T00:47:45;23.30;;;17.38;;
27925;SDS011;15267;47.838;12.128;2022-11-15T00:50:12;25.35;;;18.88;;
27925;SDS011;15267;47.838;12.128;2022-11-15T00:52:38;23.38;;;17.52;;
27925;SDS011;15267;47.838;12.128;2022-11-15T00:55:04;24.10;;;17.77;;
27925;SDS011;15267;47.838;12.128;2022-11-15T00:57:30;23.70;;;17.58;;
27925;SDS011;15267;47.838;12.128;2022-11-15T00:59:56;23.98;;;16.40;;
27925;SDS011;15267;47.838;12.128;2022-11-15T01:02:22;26.85;;;16.75;;
27925;SDS011;15267;47.838;12.128;2022-11-15T01:04:48;26.30;;;18.67;;
27925;SDS011;15267;47.838;12.128;2022-11-15T01:07:14;25.05;;;16.58;;
27925;SDS011;15267;47.838;12.128;2022-11-15T01:09:40;24.60;;;16.25;;
27925;SDS011;15267;47.838;12.128;2022-11-15T01:12:06;21.35;;;16.30;;
27925;SDS011;15267;47.838;12.128;2022-11-15T01:14:32;20.42;;;15.18;;
27925;SDS011;15267;47.838;12.128;2022-11-15T01:16:58;20.00;;;14.00;;
27925;SDS011;15267;47.838;12.128;2022-11-15T01:19:23;17.73;;;13.32;;
27925;SDS011;15267;47.838;12.128;2022-11-15T01:21:49;20.17;;;13.73;;
27925;SDS011;15267;47.838;12.128;2022-11-15T01:24:15;18.73;;;13.15;;
27925;SDS011;15267;47.838;12.128;2022-11-15T01:26:41;17.83;;;12.60;;
27925;SDS011;15267;47.838;12.128;2022-11-15T01:29:07;20.48;;;13.63;;
27925;SDS011;15267;47.838;12.128;2022-11-15T01:31:33;19.15;;;12.70;;
27925;SDS011;15267;47.838;12.128;2022-11-15T01:33:59;17.45;;;12.75;;
27925;SDS011;15267;47.838;12.128;2022-11-15T01:36:25;17.58;;;12.35;;
27925;SDS011;15267;47.838;12.128;2022-11-15T01:38:58;17.33;;;11.95;;
27925;SDS011;15267;47.838;12.128;2022-11-15T01:41:25;18.05;;;13.15;;
27925;SDS011;15267;47.838;12.128;2022-11-15T01:43:53;20.63;;;12.80;;
27925;SDS011;15267;47.838;12.128;2022-11-15T01:46:33;16.67;;;12.40;;
27925;SDS011;15267;47.838;12.128;2022-11-15T01:49:01;17.80;;;12.23;;
27925;SDS011;15267;47.838;12.128;2022-11-15T01:51:28;16.70;;;13.07;;
27925;SDS011;15267;47.838;12.128;2022-11-15T01:53:57;19.52;;;11.88;;
27925;SDS011;15267;47.838;12.128;2022-11-15T01:56:25;17.90;;;12.25;;
27925;SDS011;15267;47.838;12.128;2022-11-15T01:58:53;14.75;;;11.73;;
27925;SDS011;15267;47.838;12.128;2022-11-15T02:01:21;20.65;;;12.00;;
27925;SDS011;15267;47.838;12.128;2022-11-15T02:03:51;14.30;;;11.63;;
27925;SDS011;15267;47.838;12.128;2022-11-15T02:06:18;14.02;;;11.45;;
27925;SDS011;15267;47.838;12.128;2022-11-15T02:08:44;15.80;;;11.10;;
27925;SDS011;15267;47.838;12.128;2022-11-15T02:11:10;13.38;;;10.65;;
27925;SDS011;15267;47.838;12.128;2022-11-15T02:13:36;13.93;;;10.75;;
27925;SDS011;15267;47.838;12.128;2022-11-15T02:18:58;15.20;;;10.35;;
27925;SDS011;15267;47.838;12.128;2022-11-15T02:21:41;14.70;;;10.68;;
27925;SDS011;15267;47.838;12.128;2022-11-15T02:39:28;14.93;;;10.32;;
27925;SDS011;15267;47.838;12.128;2022-11-15T02:42:07;13.05;;;9.38;;
27925;SDS011;15267;47.838;12.128;2022-11-15T02:44:53;13.43;;;9.95;;
27925;SDS011;15267;47.838;12.128;2022-11-15T02:47:22;13.65;;;9.80;;
27925;SDS011;15267;47.838;12.128;2022-11-15T02:49:50;11.90;;;9.80;;
27925;SDS011;15267;47.838;12.128;2022-11-15T02:52:19;11.05;;;9.35;;
27925;SDS011;15267;47.838;12.128;2022-11-15T02:54:55;12.73;;;10.13;;
27925;SDS011;15267;47.838;12.128;2022-11-15T02:58:06;12.95;;;10.30;;
27925;SDS011;15267;47.838;12.128;2022-11-15T03:00:30;12.38;;;10.15;;
27925;SDS011;15267;47.838;12.128;2022-11-15T03:03:03;14.05;;;9.63;;
27925;SDS011;15267;47.838;12.128;2022-11-15T03:13:10;13.85;;;10.13;;
27925;SDS011;15267;47.838;12.128;2022-11-15T03:15:41;14.27;;;10.13;;
27925;SDS011;15267;47.838;12.128;2022-11-15T03:18:19;14.30;;;9.70;;
27925;SDS011;15267;47.838;12.128;2022-11-15T03:20:45;13.02;;;9.43;;
27925;SDS011;15267;47.838;12.128;2022-11-15T03:23:12;14.77;;;9.40;;
27925;SDS011;15267;47.838;12.128;2022-11-15T03:25:41;12.07;;;9.55;;
27925;SDS011;15267;47.838;12.128;2022-11-15T03:28:09;11.88;;;9.65;;
27925;SDS011;15267;47.838;12.128;2022-11-15T03:30:37;12.20;;;9.45;;
27925;SDS011;15267;47.838;12.128;2022-11-15T03:33:04;12.43;;;9.63;;
27925;SDS011;15267;47.838;12.128;2022-11-15T03:35:33;13.27;;;9.32;;
27925;SDS011;15267;47.838;12.128;2022-11-15T03:38:21;11.65;;;9.20;;
27925;SDS011;15267;47.838;12.128;2022-11-15T03:40:57;10.90;;;9.23;;
27925;SDS011;15267;47.838;12.128;2022-11-15T03:45:51;12.27;;;9.15;;
27925;SDS011;15267;47.838;12.128;2022-11-15T03:48:18;11.23;;;8.27;;
27925;SDS011;15267;47.838;12.128;2022-11-15T03:50:46;10.50;;;8.43;;
27925;SDS011;15267;47.838;12.128;2022-11-15T03:53:13;12.30;;;9.90;;
27925;SDS011;15267;47.838;12.128;2022-11-15T03:55:39;11.90;;;9.40;;
27925;SDS011;15267;47.838;12.128;2022-11-15T03:58:05;11.27;;;9.02;;
27925;SDS011;15267;47.838;12.128;2022-11-15T04:00:31;10.27;;;8.63;;
27925;SDS011;15267;47.838;12.128;2022-11-15T04:02:57;10.57;;;8.90;;
27925;SDS011;15267;47.838;12.128;2022-11-15T04:05:23;10.60;;;8.27;;
27925;SDS011;15267;47.838;12.128;2022-11-15T04:07:49;11.45;;;8.35;;
27925;SDS011;15267;47.838;12.128;2022-11-15T04:10:15;10.10;;;8.48;;
27925;SDS011;15267;47.838;12.128;2022-11-15T04:12:42;8.55;;;7.60;;
27925;SDS011;15267;47.838;12.128;2022-11-15T04:15:10;10.98;;;8.60;;
27925;SDS011;15267;47.838;12.128;2022-11-15T04:17:46;9.85;;;8.65;;
27925;SDS011;15267;47.838;12.128;2022-11-15T04:23:00;10.52;;;8.57;;
27925;SDS011;15267;47.838;12.128;2022-11-15T04:25:45;10.25;;;8.75;;
27925;SDS011;15267;47.838;12.128;2022-11-15T04:28:13;10.10;;;8.52;;
27925;SDS011;15267;47.838;12.128;2022-11-15T04:30:39;11.48;;;8.48;;
27925;SDS011;15267;47.838;12.128;2022-11-15T04:33:05;11.23;;;8.57;;
27925;SDS011;15267;47.838;12.128;2022-11-15T04:35:31;10.38;;;8.35;;
27925;SDS011;15267;47.838;12.128;2022-11-15T04:37:57;10.40;;;8.18;;
27925;SDS011;15267;47.838;12.128;2022-11-15T04:40:23;9.48;;;8.43;;
27925;SDS011;15267;47.838;12.128;2022-11-15T04:42:49;12.95;;;8.70;;
27925;SDS011;15267;47.838;12.128;2022-11-15T04:45:15;10.05;;;8.43;;
27925;SDS011;15267;47.838;12.128;2022-11-15T04:47:45;10.45;;;9.02;;
27925;SDS011;15267;47.838;12.128;2022-11-15T04:50:11;11.57;;;9.70;;
27925;SDS011;15267;47.838;12.128;2022-11-15T04:52:39;10.45;;;8.95;;
27925;SDS011;15267;47.838;12.128;2022-11-15T04:55:05;10.57;;;8.35;;
27925;SDS011;15267;47.838;12.128;2022-11-15T04:57:31;11.32;;;9.02;;
27925;SDS011;15267;47.838;12.128;2022-11-15T04:59:57;10.52;;;8.55;;
27925;SDS011;15267;47.838;12.128;2022-11-15T05:02:23;10.82;;;9.60;;
27925;SDS011;15267;47.838;12.128;2022-11-15T05:05:09;12.65;;;9.88;;
27925;SDS011;15267;47.838;12.128;2022-11-15T05:07:35;11.77;;;10.20;;
27925;SDS011;15267;47.838;12.128;2022-11-15T05:10:01;23.00;;;17.58;;
27925;SDS011;15267;47.838;12.128;2022-11-15T05:12:27;25.95;;;20.95;;
27925;SDS011;15267;47.838;12.128;2022-11-15T05:14:53;24.75;;;19.52;;
27925;SDS011;15267;47.838;12.128;2022-11-15T05:17:19;16.02;;;12.63;;
27925;SDS011;15267;47.838;12.128;2022-11-15T05:19:45;15.30;;;13.05;;
27925;SDS011;15267;47.838;12.128;2022-11-15T05:22:11;19.88;;;14.65;;
27925;SDS011;15267;47.838;12.128;2022-11-15T05:24:37;14.80;;;12.43;;
27925;SDS011;15267;47.838;12.128;2022-11-15T05:27:02;19.02;;;12.70;;
27925;SDS011;15267;47.838;12.128;2022-11-15T05:29:28;14.55;;;11.00;;
27925;SDS011;15267;47.838;12.128;2022-11-15T05:31:54;14.95;;;11.90;;
27925;SDS011;15267;47.838;12.128;2022-11-15T05:34:20;12.57;;;10.75;;
27925;SDS011;15267;47.838;12.128;2022-11-15T05:36:47;12.63;;;11.10;;
27925;SDS011;15267;47.838;12.128;2022-11-15T05:39:14;11.73;;;9.68;;
27925;SDS011;15267;47.838;12.128;2022-11-15T05:41:41;14.65;;;10.80;;
27925;SDS011;15267;47.838;12.128;2022-11-15T05:44:10;12.00;;;10.50;;
27925;SDS011;15267;47.838;12.128;2022-11-15T05:46:36;11.65;;;10.20;;
27925;SDS011;15267;47.838;12.128;2022-11-15T05:49:05;14.07;;;12.30;;
27925;SDS011;15267;47.838;12.128;2022-11-15T05:51:33;14.45;;;12.63;;
27925;SDS011;15267;47.838;12.128;2022-11-15T05:53:59;13.25;;;11.85;;
27925;SDS011;15267;47.838;12.128;2022-11-15T05:56:26;16.25;;;13.23;;
27925;SDS011;15267;47.838;12.128;2022-11-15T05:58:52;15.32;;;13.18;;
27925;SDS011;15267;47.838;12.128;2022-11-15T06:01:19;12.30;;;11.00;;
27925;SDS011;15267;47.838;12.128;2022-11-15T06:03:45;13.60;;;11.05;;
27925;SDS011;15267;47.838;12.128;2022-11-15T06:06:10;13.77;;;10.65;;
27925;SDS011;15267;47.838;12.128;2022-11-15T06:08:36;13.50;;;10.43;;
27925;SDS011;15267;47.838;12.128;2022-11-15T06:11:06;18.92;;;11.60;;
27925;SDS011;15267;47.838;12.128;2022-11-15T06:13:32;12.80;;;10.30;;
27925;SDS011;15267;47.838;12.128;2022-11-15T06:15:58;13.05;;;10.23;;
27925;SDS011;15267;47.838;12.128;2022-11-15T06:18:24;15.38;;;10.30;;
27925;SDS011;15267;47.838;12.128;2022-11-15T06:20:51;16.45;;;12.52;;
27925;SDS011;15267;47.838;12.128;2022-11-15T06:23:17;17.95;;;12.57;;
27925;SDS011;15267;47.838;12.128;2022-11-15T06:25:43;21.80;;;13.48;;
27925;SDS011;15267;47.838;12.128;2022-11-15T06:28:08;18.15;;;13.25;;
27925;SDS011;15267;47.838;12.128;2022-11-15T06:30:34;24.45;;;16.58;;
27925;SDS011;15267;47.838;12.128;2022-11-15T06:33:01;23.17;;;14.55;;
27925;SDS011;15267;47.838;12.128;2022-11-15T06:35:27;22.05;;;17.77;;
27925;SDS011;15267;47.838;12.128;2022-11-15T06:37:53;27.35;;;16.23;;
27925;SDS011;15267;47.838;12.128;2022-11-15T06:40:20;22.23;;;14.50;;
27925;SDS011;15267;47.838;12.128;2022-11-15T06:42:46;19.05;;;14.65;;
27925;SDS011;15267;47.838;12.128;2022-11-15T06:45:12;23.00;;;15.27;;
27925;SDS011;15267;47.838;12.128;2022-11-15T06:47:45;19.50;;;14.70;;
27925;SDS011;15267;47.838;12.128;2022-11-15T06:52:37;30.35;;;20.45;;
27925;SDS011;15267;47.838;12.128;2022-11-15T06:55:03;25.15;;;17.52;;
27925;SDS011;15267;47.838;12.128;2022-11-15T06:57:29;26.08;;;16.25;;
27925;SDS011;15267;47.838;12.128;2022-11-15T06:59:55;24.88;;;16.42;;
27925;SDS011;15267;47.838;12.128;2022-11-15T07:02:21;28.08;;;20.23;;
27925;SDS011;15267;47.838;12.128;2022-11-15T07:04:47;26.83;;;21.00;;
27925;SDS011;15267;47.838;12.128;2022-11-15T07:07:13;26.95;;;19.60;;
27925;SDS011;15267;47.838;12.128;2022-11-15T07:09:39;32.30;;;19.25;;
27925;SDS011;15267;47.838;12.128;2022-11-15T07:12:05;11.55;;;7.43;;
27925;SDS011;15267;47.838;12.128;2022-11-15T07:14:31;15.50;;;10.77;;
27925;SDS011;15267;47.838;12.128;2022-11-15T07:16:57;19.23;;;12.00;;
27925;SDS011;15267;47.838;12.128;2022-11-15T07:19:23;13.55;;;9.70;;
27925;SDS011;15267;47.838;12.128;2022-11-15T07:21:49;12.45;;;9.38;;
27925;SDS011;15267;47.838;12.128;2022-11-15T07:24:15;22.48;;;15.25;;
27925;SDS011;15267;47.838;12.128;2022-11-15T07:26:41;25.90;;;19.00;;
27925;SDS011;15267;47.838;12.128;2022-11-15T07:29:06;25.95;;;17.30;;
27925;SDS011;15267;47.838;12.128;2022-11-15T07:31:32;28.52;;;23.20;;
27925;SDS011;15267;47.838;12.128;2022-11-15T07:33:58;31.60;;;24.13;;
27925;SDS011;15267;47.838;12.128;2022-11-15T07:36:24;31.25;;;21.17;;
27925;SDS011;15267;47.838;12.128;2022-11-15T07:38:50;28.27;;;17.08;;
27925;SDS011;15267;47.838;12.128;2022-11-15T07:41:16;23.58;;;15.25;;
27925;SDS011;15267;47.838;12.128;2022-11-15T07:43:42;25.00;;;14.63;;
27925;SDS011;15267;47.838;12.128;2022-11-15T07:46:08;19.05;;;13.38;;
27925;SDS011;15267;47.838;12.128;2022-11-15T07:48:38;20.30;;;14.25;;
27925;SDS011;15267;47.838;12.128;2022-11-15T07:51:05;27.02;;;13.38;;
27925;SDS011;15267;47.838;12.128;2022-11-15T07:53:31;19.80;;;12.57;;
27925;SDS011;15267;47.838;12.128;2022-11-15T07:55:57;18.15;;;11.65;;
27925;SDS011;15267;47.838;12.128;2022-11-15T07:58:23;21.40;;;13.77;;
27925;SDS011;15267;47.838;12.128;2022-11-15T08:00:49;25.35;;;16.23;;
27925;SDS011;15267;47.838;12.128;2022-11-15T08:03:15;31.58;;;17.17;;
27925;SDS011;15267;47.838;12.128;2022-11-15T08:05:42;25.30;;;18.15;;
27925;SDS011;15267;47.838;12.128;2022-11-15T08:08:09;28.27;;;18.38;;
27925;SDS011;15267;47.838;12.128;2022-11-15T08:10:35;29.23;;;15.88;;
27925;SDS011;15267;47.838;12.128;2022-11-15T08:13:02;22.73;;;16.00;;
27925;SDS011;15267;47.838;12.128;2022-11-15T08:15:29;26.75;;;17.02;;
27925;SDS011;15267;47.838;12.128;2022-11-15T08:18:01;29.33;;;16.88;;
27925;SDS011;15267;47.838;12.128;2022-11-15T08:20:29;28.73;;;17.60;;
27925;SDS011;15267;47.838;12.128;2022-11-15T08:22:56;27.48;;;16.83;;
27925;SDS011;15267;47.838;12.128;2022-11-15T08:25:22;25.75;;;15.55;;
27925;SDS011;15267;47.838;12.128;2022-11-15T08:27:51;25.17;;;15.10;;
27925;SDS011;15267;47.838;12.128;2022-11-15T08:30:17;25.58;;;16.00;;
27925;SDS011;15267;47.838;12.128;2022-11-15T08:32:43;31.80;;;17.45;;
27925;SDS011;15267;47.838;12.128;2022-11-15T08:35:09;28.20;;;16.27;;
27925;SDS011;15267;47.838;12.128;2022-11-15T08:37:35;31.63;;;16.67;;
27925;SDS011;15267;47.838;12.128;2022-11-15T08:40:02;34.15;;;17.70;;
27925;SDS011;15267;47.838;12.128;2022-11-15T08:42:28;35.42;;;17.90;;
27925;SDS011;15267;47.838;12.128;2022-11-15T08:44:54;34.67;;;17.23;;
27925;SDS011;15267;47.838;12.128;2022-11-15T08:47:19;38.78;;;19.10;;
27925;SDS011;15267;47.838;12.128;2022-11-15T08:49:45;36.55;;;21.60;;
27925;SDS011;15267;47.838;12.128;2022-11-15T08:52:11;31.48;;;18.50;;
27925;SDS011;15267;47.838;12.128;2022-11-15T08:54:37;27.88;;;16.70;;
27925;SDS011;15267;47.838;12.128;2022-11-15T08:57:03;29.10;;;18.20;;
27925;SDS011;15267;47.838;12.128;2022-11-15T08:59:29;35.90;;;20.00;;
27925;SDS011;15267;47.838;12.128;2022-11-15T09:01:55;29.73;;;16.60;;
27925;SDS011;15267;47.838;12.128;2022-11-15T09:04:21;21.35;;;14.75;;
27925;SDS011;15267;47.838;12.128;2022-11-15T09:06:47;24.65;;;15.82;;
27925;SDS011;15267;47.838;12.128;2022-11-15T09:09:13;17.02;;;13.27;;
27925;SDS011;15267;47.838;12.128;2022-11-15T09:11:39;16.63;;;12.95;;
27925;SDS011;15267;47.838;12.128;2022-11-15T09:14:05;18.95;;;11.82;;
27925;SDS011;15267;47.838;12.128;2022-11-15T09:16:31;19.77;;;11.43;;
27925;SDS011;15267;47.838;12.128;2022-11-15T09:18:57;15.02;;;10.95;;
27925;SDS011;15267;47.838;12.128;2022-11-15T09:21:23;14.98;;;11.15;;
27925;SDS011;15267;47.838;12.128;2022-11-15T09:23:50;15.48;;;11.30;;
27925;SDS011;15267;47.838;12.128;2022-11-15T09:26:17;16.38;;;10.50;;
27925;SDS011;15267;47.838;12.128;2022-11-15T09:28:43;12.45;;;9.57;;
27925;SDS011;15267;47.838;12.128;2022-11-15T09:31:09;13.63;;;10.70;;
27925;SDS011;15267;47.838;12.128;2022-11-15T09:33:35;14.05;;;10.52;;
27925;SDS011;15267;47.838;12.128;2022-11-15T09:36:08;17.38;;;9.57;;
27925;SDS011;15267;47.838;12.128;2022-11-15T09:38:34;15.98;;;9.73;;
27925;SDS011;15267;47.838;12.128;2022-11-15T09:48:50;13.57;;;10.02;;
27925;SDS011;15267;47.838;12.128;2022-11-15T09:51:33;13.80;;;10.50;;
27925;SDS011;15267;47.838;12.128;2022-11-15T09:56:41;12.88;;;9.05;;
27925;SDS011;15267;47.838;12.128;2022-11-15T10:04:19;17.20;;;11.98;;
27925;SDS011;15267;47.838;12.128;2022-11-15T10:06:49;16.80;;;9.73;;
27925;SDS011;15267;47.838;12.128;2022-11-15T10:09:16;10.88;;;8.68;;
27925;SDS011;15267;47.838;12.128;2022-11-15T10:11:44;21.95;;;16.52;;
27925;SDS011;15267;47.838;12.128;2022-11-15T10:24:26;14.50;;;9.93;;
27925;SDS011;15267;47.838;12.128;2022-11-15T10:26:55;13.55;;;9.90;;
27925;SDS011;15267;47.838;12.128;2022-11-15T10:29:22;12.65;;;10.45;;
27925;SDS011;15267;47.838;12.128;2022-11-15T10:31:48;36.25;;;23.60;;
27925;SDS011;15267;47.838;12.128;2022-11-15T10:34:16;20.50;;;13.23;;
27925;SDS011;15267;47.838;12.128;2022-11-15T10:36:44;11.18;;;8.48;;
27925;SDS011;15267;47.838;12.128;2022-11-15T10:39:11;11.88;;;8.95;;
27925;SDS011;15267;47.838;12.128;2022-11-15T10:41:38;12.05;;;9.05;;
27925;SDS011;15267;47.838;12.128;2022-11-15T10:46:34;10.55;;;7.30;;
27925;SDS011;15267;47.838;12.128;2022-11-15T10:49:17;11.05;;;7.95;;
27925;SDS011;15267;47.838;12.128;2022-11-15T10:51:50;8.95;;;7.32;;
27925;SDS011;15267;47.838;12.128;2022-11-15T10:54:24;9.77;;;7.63;;
27925;SDS011;15267;47.838;12.128;2022-11-15T10:56:52;11.55;;;6.90;;
27925;SDS011;15267;47.838;12.128;2022-11-15T10:59:23;14.63;;;7.10;;
27925;SDS011;15267;47.838;12.128;2022-11-15T11:01:50;9.52;;;6.65;;
27925;SDS011;15267;47.838;12.128;2022-11-15T11:04:16;11.07;;;6.88;;
27925;SDS011;15267;47.838;12.128;2022-11-15T11:06:50;9.20;;;6.57;;
27925;SDS011;15267;47.838;12.128;2022-11-15T11:11:51;12.35;;;7.10;;
27925;SDS011;15267;47.838;12.128;2022-11-15T11:22:23;8.48;;;6.43;;
27925;SDS011;15267;47.838;12.128;2022-11-15T11:27:39;8.60;;;6.15;;
27925;SDS011;15267;47.838;12.128;2022-11-15T11:30:21;8.80;;;6.25;;
27925;SDS011;15267;47.838;12.128;2022-11-15T11:32:55;9.43;;;6.00;;
27925;SDS011;15267;47.838;12.128;2022-11-15T11:38:04;9.30;;;6.30;;
27925;SDS011;15267;47.838;12.128;2022-11-15T11:40:44;8.70;;;5.57;;
27925;SDS011;15267;47.838;12.128;2022-11-15T11:46:13;9.40;;;5.65;;
27925;SDS011;15267;47.838;12.128;2022-11-15T11:48:44;11.85;;;7.32;;
27925;SDS011;15267;47.838;12.128;2022-11-15T11:53:47;10.30;;;6.10;;
27925;SDS011;15267;47.838;12.128;2022-11-15T11:56:21;7.97;;;5.70;;
27925;SDS011;15267;47.838;12.128;2022-11-15T11:58:47;7.18;;;5.63;;
27925;SDS011;15267;47.838;12.128;2022-11-15T12:01:14;8.88;;;6.10;;
27925;SDS011;15267;47.838;12.128;2022-11-15T12:08:53;8.70;;;5.50;;
27925;SDS011;15267;47.838;12.128;2022-11-15T12:11:23;7.40;;;5.68;;
27925;SDS011;15267;47.838;12.128;2022-11-15T12:13:53;6.80;;;5.32;;
27925;SDS011;15267;47.838;12.128;2022-11-15T12:16:22;8.55;;;6.35;;
27925;SDS011;15267;47.838;12.128;2022-11-15T12:18:51;6.65;;;5.03;;
27925;SDS011;15267;47.838;12.128;2022-11-15T12:21:39;7.90;;;5.10;;
27925;SDS011;15267;47.838;12.128;2022-11-15T12:24:15;5.93;;;4.63;;
27925;SDS011;15267;47.838;12.128;2022-11-15T12:26:48;6.40;;;4.57;;
27925;SDS011;15267;47.838;12.128;2022-11-15T12:29:18;7.57;;;4.43;;
27925;SDS011;15267;47.838;12.128;2022-11-15T12:31:48;7.78;;;4.53;;
27925;SDS011;15267;47.838;12.128;2022-11-15T12:36:47;8.23;;;4.90;;
27925;SDS011;15267;47.838;12.128;2022-11-15T12:39:14;7.18;;;4.90;;
27925;SDS011;15267;47.838;12.128;2022-11-15T12:41:44;6.72;;;4.90;;
27925;SDS011;15267;47.838;12.128;2022-11-15T13:02:24;5.53;;;4.00;;
27925;SDS011;15267;47.838;12.128;2022-11-15T13:04:50;5.22;;;4.00;;
27925;SDS011;15267;47.838;12.128;2022-11-15T13:27:44;4.72;;;4.00;;
27925;SDS011;15267;47.838;12.128;2022-11-15T13:30:14;5.18;;;3.85;;
27925;SDS011;15267;47.838;12.128;2022-11-15T13:32:41;4.80;;;3.88;;
27925;SDS011;15267;47.838;12.128;2022-11-15T13:35:07;4.50;;;3.80;;
27925;SDS011;15267;47.838;12.128;2022-11-15T13:37:33;8.82;;;6.00;;
27925;SDS011;15267;47.838;12.128;2022-11-15T13:40:42;9.82;;;6.40;;
27925;SDS011;15267;47.838;12.128;2022-11-15T13:42:49;16.25;;;9.63;;
27925;SDS011;15267;47.838;12.128;2022-11-15T13:45:17;8.00;;;4.35;;
27925;SDS011;15267;47.838;12.128;2022-11-15T13:47:43;5.90;;;3.95;;
27925;SDS011;15267;47.838;12.128;2022-11-15T13:50:10;7.95;;;4.32;;
27925;SDS011;15267;47.838;12.128;2022-11-15T13:52:36;7.30;;;3.90;;
27925;SDS011;15267;47.838;12.128;2022-11-15T13:55:12;5.53;;;4.45;;
27925;SDS011;15267;47.838;12.128;2022-11-15T14:00:06;6.70;;;4.10;;
27925;SDS011;15267;47.838;12.128;2022-11-15T14:02:33;6.18;;;4.40;;
27925;SDS011;15267;47.838;12.128;2022-11-15T14:05:01;8.38;;;4.32;;
27925;SDS011;15267;47.838;12.128;2022-11-15T14:07:27;5.90;;;4.28;;
27925;SDS011;15267;47.838;12.128;2022-11-15T14:09:54;7.20;;;4.45;;
27925;SDS011;15267;47.838;12.128;2022-11-15T14:12:25;7.88;;;4.40;;
27925;SDS011;15267;47.838;12.128;2022-11-15T14:14:51;5.97;;;4.00;;
27925;SDS011;15267;47.838;12.128;2022-11-15T14:17:21;6.53;;;4.20;;
27925;SDS011;15267;47.838;12.128;2022-11-15T14:19:58;7.25;;;4.10;;
27925;SDS011;15267;47.838;12.128;2022-11-15T14:22:28;6.43;;;3.80;;
27925;SDS011;15267;47.838;12.128;2022-11-15T14:27:30;7.07;;;4.40;;
27925;SDS011;15267;47.838;12.128;2022-11-15T14:29:57;5.38;;;3.90;;
27925;SDS011;15267;47.838;12.128;2022-11-15T14:32:24;5.20;;;3.95;;
27925;SDS011;15267;47.838;12.128;2022-11-15T14:34:57;7.43;;;4.05;;
27925;SDS011;15267;47.838;12.128;2022-11-15T14:37:25;4.95;;;3.97;;
27925;SDS011;15267;47.838;12.128;2022-11-15T14:39:51;4.85;;;4.13;;
27925;SDS011;15267;47.838;12.128;2022-11-15T14:42:18;7.10;;;4.30;;
27925;SDS011;15267;47.838;12.128;2022-11-15T14:44:44;7.55;;;4.30;;
27925;SDS011;15267;47.838;12.128;2022-11-15T14:47:10;7.30;;;3.38;;
27925;SDS011;15267;47.838;12.128;2022-11-15T14:49:36;7.03;;;5.97;;
27925;SDS011;15267;47.838;12.128;2022-11-15T14:52:04;8.15;;;5.10;;
27925;SDS011;15267;47.838;12.128;2022-11-15T14:54:30;7.85;;;3.85;;
27925;SDS011;15267;47.838;12.128;2022-11-15T14:56:56;8.10;;;4.38;;
27925;SDS011;15267;47.838;12.128;2022-11-15T14:59:22;7.65;;;4.32;;
27925;SDS011;15267;47.838;12.128;2022-11-15T15:01:48;7.93;;;4.45;;
27925;SDS011;15267;47.838;12.128;2022-11-15T15:04:14;7.00;;;5.10;;
27925;SDS011;15267;47.838;12.128;2022-11-15T15:06:40;7.28;;;4.78;;
27925;SDS011;15267;47.838;12.128;2022-11-15T15:09:06;7.93;;;4.38;;
27925;SDS011;15267;47.838;12.128;2022-11-15T15:11:32;8.15;;;4.82;;
27925;SDS011;15267;47.838;12.128;2022-11-15T15:13:58;11.18;;;4.97;;
27925;SDS011;15267;47.838;12.128;2022-11-15T15:16:26;12.45;;;4.80;;
27925;SDS011;15267;47.838;12.128;2022-11-15T15:18:52;9.75;;;4.95;;
27925;SDS011;15267;47.838;12.128;2022-11-15T15:21:25;12.38;;;5.03;;
27925;SDS011;15267;47.838;12.128;2022-11-15T15:23:52;10.43;;;5.18;;
27925;SDS011;15267;47.838;12.128;2022-11-15T15:26:19;13.75;;;4.95;;
27925;SDS011;15267;47.838;12.128;2022-11-15T15:28:45;8.02;;;4.90;;
27925;SDS011;15267;47.838;12.128;2022-11-15T15:31:11;9.10;;;4.63;;
27925;SDS011;15267;47.838;12.128;2022-11-15T15:33:37;15.38;;;4.43;;
27925;SDS011;15267;47.838;12.128;2022-11-15T15:36:03;11.38;;;4.65;;
27925;SDS011;15267;47.838;12.128;2022-11-15T15:38:29;11.07;;;4.72;;
27925;SDS011;15267;47.838;12.128;2022-11-15T15:40:55;18.27;;;5.30;;
27925;SDS011;15267;47.838;12.128;2022-11-15T15:43:21;12.88;;;5.28;;
27925;SDS011;15267;47.838;12.128;2022-11-15T15:45:47;13.32;;;6.63;;
27925;SDS011;15267;47.838;12.128;2022-11-15T15:48:14;14.00;;;6.78;;
27925;SDS011;15267;47.838;12.128;2022-11-15T15:50:40;14.25;;;7.65;;
27925;SDS011;15267;47.838;12.128;2022-11-15T15:53:08;19.63;;;9.15;;
27925;SDS011;15267;47.838;12.128;2022-11-15T15:55:35;16.40;;;7.70;;
27925;SDS011;15267;47.838;12.128;2022-11-15T15:58:02;17.85;;;7.13;;
27925;SDS011;15267;47.838;12.128;2022-11-15T16:00:28;15.30;;;8.15;;
27925;SDS011;15267;47.838;12.128;2022-11-15T16:02:54;11.63;;;6.32;;
27925;SDS011;15267;47.838;12.128;2022-11-15T16:05:20;11.88;;;7.32;;
27925;SDS011;15267;47.838;12.128;2022-11-15T16:07:47;16.35;;;6.63;;
27925;SDS011;15267;47.838;12.128;2022-11-15T16:10:17;15.30;;;6.75;;
27925;SDS011;15267;47.838;12.128;2022-11-15T16:12:44;17.98;;;9.63;;
27925;SDS011;15267;47.838;12.128;2022-11-15T16:15:10;27.50;;;18.35;;
27925;SDS011;15267;47.838;12.128;2022-11-15T16:17:44;20.13;;;12.13;;
27925;SDS011;15267;47.838;12.128;2022-11-15T16:20:20;14.30;;;9.75;;
27925;SDS011;15267;47.838;12.128;2022-11-15T16:22:47;17.05;;;8.88;;
27925;SDS011;15267;47.838;12.128;2022-11-15T16:25:13;12.68;;;8.23;;
27925;SDS011;15267;47.838;12.128;2022-11-15T16:27:39;16.50;;;8.50;;
27925;SDS011;15267;47.838;12.128;2022-11-15T16:30:14;25.38;;;15.18;;
27925;SDS011;15267;47.838;12.128;2022-11-15T16:32:40;32.05;;;16.58;;
27925;SDS011;15267;47.838;12.128;2022-11-15T16:35:07;19.25;;;12.48;;
27925;SDS011;15267;47.838;12.128;2022-11-15T16:37:33;22.85;;;11.77;;